Terminal Aerodrome Forecast
Issued by NWS Upton, NY

Home | Current Version | Previous Version | Text Only | Print | Product List | Glossary On
Versions: 1 2 3 4 5 6 7 8 9 10 11 12 13 14 15 16 17 18 19 20 21 22 23 24 25 26 27 28
000
FTUS41 KOKX 221400 AAA
TAFISP
TAF AMD
KISP 221441Z 2215/2312 24011G16KT P6SM FEW250
     FM221800 23013G20KT P6SM SCT250
     FM222200 23012KT P6SM SCT050 BKN100
     FM230400 23008KT P6SM BKN100=

USA.gov is the U.S. government's official web portal to all federal, state and local government web resources and services.